sensor_id;sensor_type;location;lat;lon;timestamp;pressure;altitude;pressure_sealevel;temperature;humidity
11523;BME280;70090;43.208;27.904;2024-03-02T00:01:36;100825.13;;;11.57;100.00
11523;BME280;70090;43.208;27.904;2024-03-02T00:04:04;100826.72;;;11.58;100.00
11523;BME280;70090;43.208;27.904;2024-03-02T00:06:32;100825.81;;;11.54;100.00
11523;BME280;70090;43.208;27.904;2024-03-02T00:08:59;100826.63;;;11.55;100.00
11523;BME280;70090;43.208;27.904;2024-03-02T00:11:26;100815.56;;;11.51;100.00
11523;BME280;70090;43.208;27.904;2024-03-02T00:13:53;100816.72;;;11.50;100.00
11523;BME280;70090;43.208;27.904;2024-03-02T00:16:22;100809.69;;;11.53;100.00
11523;BME280;70090;43.208;27.904;2024-03-02T00:18:50;100816.38;;;11.52;100.00
11523;BME280;70090;43.208;27.904;2024-03-02T00:21:18;100816.31;;;11.48;100.00
11523;BME280;70090;43.208;27.904;2024-03-02T00:23:48;100813.88;;;11.43;100.00
11523;BME280;70090;43.208;27.904;2024-03-02T00:26:16;100810.38;;;11.46;100.00
11523;BME280;70090;43.208;27.904;2024-03-02T00:28:43;100807.28;;;11.51;100.00
11523;BME280;70090;43.208;27.904;2024-03-02T00:31:11;100817.19;;;11.56;100.00
11523;BME280;70090;43.208;27.904;2024-03-02T00:33:41;100810.19;;;11.58;100.00
11523;BME280;70090;43.208;27.904;2024-03-02T00:36:09;100794.47;;;11.62;100.00
11523;BME280;70090;43.208;27.904;2024-03-02T00:38:44;100787.69;;;11.56;100.00
11523;BME280;70090;43.208;27.904;2024-03-02T00:41:16;100774.63;;;11.53;100.00
11523;BME280;70090;43.208;27.904;2024-03-02T00:43:47;100760.44;;;11.51;100.00
11523;BME280;70090;43.208;27.904;2024-03-02T00:46:18;100761.16;;;11.45;100.00
11523;BME280;70090;43.208;27.904;2024-03-02T00:48:53;100751.66;;;11.42;100.00
11523;BME280;70090;43.208;27.904;2024-03-02T00:51:21;100746.09;;;11.39;100.00
11523;BME280;70090;43.208;27.904;2024-03-02T00:53:49;100757.94;;;11.39;100.00
11523;BME280;70090;43.208;27.904;2024-03-02T00:56:16;100753.59;;;11.38;100.00
11523;BME280;70090;43.208;27.904;2024-03-02T00:58:43;100767.31;;;11.35;100.00
11523;BME280;70090;43.208;27.904;2024-03-02T01:01:10;100768.34;;;11.53;100.00
11523;BME280;70090;43.208;27.904;2024-03-02T01:03:37;100755.19;;;11.72;100.00
11523;BME280;70090;43.208;27.904;2024-03-02T01:06:06;100757.91;;;11.69;100.00
11523;BME280;70090;43.208;27.904;2024-03-02T01:08:34;100761.78;;;11.64;100.00
11523;BME280;70090;43.208;27.904;2024-03-02T01:11:01;100765.28;;;11.58;100.00
11523;BME280;70090;43.208;27.904;2024-03-02T01:13:28;100755.69;;;11.48;100.00
11523;BME280;70090;43.208;27.904;2024-03-02T01:15:56;100736.59;;;11.33;100.00
11523;BME280;70090;43.208;27.904;2024-03-02T01:18:24;100751.28;;;11.44;100.00
11523;BME280;70090;43.208;27.904;2024-03-02T01:20:51;100743.41;;;11.42;100.00
11523;BME280;70090;43.208;27.904;2024-03-02T01:23:19;100724.88;;;11.39;100.00
11523;BME280;70090;43.208;27.904;2024-03-02T01:25:47;100717.34;;;11.36;100.00
11523;BME280;70090;43.208;27.904;2024-03-02T01:28:14;100718.47;;;11.32;100.00
11523;BME280;70090;43.208;27.904;2024-03-02T01:30:42;100718.03;;;11.26;100.00
11523;BME280;70090;43.208;27.904;2024-03-02T01:33:09;100716.69;;;11.17;100.00
11523;BME280;70090;43.208;27.904;2024-03-02T01:35:36;100714.34;;;11.15;100.00
11523;BME280;70090;43.208;27.904;2024-03-02T01:38:04;100715.94;;;11.16;100.00
11523;BME280;70090;43.208;27.904;2024-03-02T01:40:34;100708.84;;;11.15;100.00
11523;BME280;70090;43.208;27.904;2024-03-02T01:43:01;100710.72;;;11.11;100.00
11523;BME280;70090;43.208;27.904;2024-03-02T01:45:28;100722.41;;;11.01;100.00
11523;BME280;70090;43.208;27.904;2024-03-02T01:47:55;100713.72;;;10.99;100.00
11523;BME280;70090;43.208;27.904;2024-03-02T01:50:28;100708.59;;;10.98;100.00
11523;BME280;70090;43.208;27.904;2024-03-02T01:52:56;100693.63;;;10.95;100.00
11523;BME280;70090;43.208;27.904;2024-03-02T01:55:24;100693.56;;;10.92;100.00
11523;BME280;70090;43.208;27.904;2024-03-02T01:57:52;100694.69;;;10.87;100.00
11523;BME280;70090;43.208;27.904;2024-03-02T02:00:20;100688.72;;;10.82;100.00
11523;BME280;70090;43.208;27.904;2024-03-02T02:02:47;100666.31;;;10.83;100.00
11523;BME280;70090;43.208;27.904;2024-03-02T02:05:15;100666.75;;;10.85;100.00
11523;BME280;70090;43.208;27.904;2024-03-02T02:07:42;100663.19;;;10.85;100.00
11523;BME280;70090;43.208;27.904;2024-03-02T02:10:10;100660.81;;;10.83;100.00
11523;BME280;70090;43.208;27.904;2024-03-02T02:12:37;100669.81;;;10.80;100.00
11523;BME280;70090;43.208;27.904;2024-03-02T02:15:21;100660.34;;;10.78;100.00
11523;BME280;70090;43.208;27.904;2024-03-02T02:17:49;100657.19;;;10.76;100.00
11523;BME280;70090;43.208;27.904;2024-03-02T02:20:16;100656.28;;;10.68;100.00
11523;BME280;70090;43.208;27.904;2024-03-02T02:23:01;100658.66;;;10.70;100.00
11523;BME280;70090;43.208;27.904;2024-03-02T02:25:28;100664.88;;;10.63;100.00
11523;BME280;70090;43.208;27.904;2024-03-02T02:27:56;100676.66;;;10.64;100.00
11523;BME280;70090;43.208;27.904;2024-03-02T02:30:24;100662.88;;;10.64;100.00
11523;BME280;70090;43.208;27.904;2024-03-02T02:32:52;100666.03;;;10.62;100.00
11523;BME280;70090;43.208;27.904;2024-03-02T02:35:19;100661.75;;;10.65;100.00
11523;BME280;70090;43.208;27.904;2024-03-02T02:37:47;100675.88;;;10.63;100.00
11523;BME280;70090;43.208;27.904;2024-03-02T02:40:16;100695.59;;;10.69;100.00
11523;BME280;70090;43.208;27.904;2024-03-02T02:42:44;100709.03;;;10.74;100.00
11523;BME280;70090;43.208;27.904;2024-03-02T02:45:11;100712.22;;;10.76;100.00
11523;BME280;70090;43.208;27.904;2024-03-02T02:47:40;100707.09;;;10.74;100.00
11523;BME280;70090;43.208;27.904;2024-03-02T02:50:08;100711.00;;;10.73;100.00
11523;BME280;70090;43.208;27.904;2024-03-02T02:52:37;100720.03;;;10.70;100.00
11523;BME280;70090;43.208;27.904;2024-03-02T02:55:07;100717.28;;;10.74;100.00
11523;BME280;70090;43.208;27.904;2024-03-02T02:57:36;100726.34;;;10.74;100.00
11523;BME280;70090;43.208;27.904;2024-03-02T03:00:06;100729.13;;;10.74;100.00
11523;BME280;70090;43.208;27.904;2024-03-02T03:02:37;100727.19;;;10.78;100.00
11523;BME280;70090;43.208;27.904;2024-03-02T03:05:05;100730.38;;;10.80;100.00
11523;BME280;70090;43.208;27.904;2024-03-02T03:07:32;100730.41;;;10.84;100.00
11523;BME280;70090;43.208;27.904;2024-03-02T03:10:00;100733.66;;;10.89;100.00
11523;BME280;70090;43.208;27.904;2024-03-02T03:12:27;100720.34;;;10.95;100.00
11523;BME280;70090;43.208;27.904;2024-03-02T03:14:56;100718.81;;;10.97;100.00
11523;BME280;70090;43.208;27.904;2024-03-02T03:17:23;100720.88;;;11.04;100.00
11523;BME280;70090;43.208;27.904;2024-03-02T03:19:50;100715.00;;;11.05;100.00
11523;BME280;70090;43.208;27.904;2024-03-02T03:22:17;100711.91;;;11.10;100.00
11523;BME280;70090;43.208;27.904;2024-03-02T03:24:44;100707.25;;;11.14;100.00
11523;BME280;70090;43.208;27.904;2024-03-02T03:27:11;100708.44;;;11.17;100.00
11523;BME280;70090;43.208;27.904;2024-03-02T03:29:38;100717.09;;;11.15;100.00
11523;BME280;70090;43.208;27.904;2024-03-02T03:32:07;100710.00;;;11.14;100.00
11523;BME280;70090;43.208;27.904;2024-03-02T03:34:34;100699.44;;;11.20;100.00
11523;BME280;70090;43.208;27.904;2024-03-02T03:37:02;100703.06;;;11.27;100.00
11523;BME280;70090;43.208;27.904;2024-03-02T03:39:29;100703.84;;;11.24;100.00
11523;BME280;70090;43.208;27.904;2024-03-02T03:41:56;100707.75;;;11.23;100.00
11523;BME280;70090;43.208;27.904;2024-03-02T03:44:23;100698.69;;;11.23;100.00
11523;BME280;70090;43.208;27.904;2024-03-02T03:46:50;100693.94;;;11.20;100.00
11523;BME280;70090;43.208;27.904;2024-03-02T03:49:18;100690.72;;;11.14;100.00
11523;BME280;70090;43.208;27.904;2024-03-02T03:51:45;100696.22;;;11.14;100.00
11523;BME280;70090;43.208;27.904;2024-03-02T03:54:12;100704.09;;;11.16;100.00
11523;BME280;70090;43.208;27.904;2024-03-02T03:56:39;100708.41;;;11.13;100.00
11523;BME280;70090;43.208;27.904;2024-03-02T03:59:06;100694.25;;;11.15;100.00
11523;BME280;70090;43.208;27.904;2024-03-02T04:01:33;100690.22;;;11.05;100.00
11523;BME280;70090;43.208;27.904;2024-03-02T04:04:00;100703.47;;;10.96;100.00
11523;BME280;70090;43.208;27.904;2024-03-02T04:06:30;100703.00;;;10.91;100.00
11523;BME280;70090;43.208;27.904;2024-03-02T04:08:58;100714.00;;;10.91;100.00
11523;BME280;70090;43.208;27.904;2024-03-02T04:11:25;100709.72;;;10.93;100.00
11523;BME280;70090;43.208;27.904;2024-03-02T04:13:52;100700.72;;;10.96;100.00
11523;BME280;70090;43.208;27.904;2024-03-02T04:16:19;100706.63;;;10.98;100.00
11523;BME280;70090;43.208;27.904;2024-03-02T04:18:46;100710.56;;;10.97;100.00
11523;BME280;70090;43.208;27.904;2024-03-02T04:21:13;100715.66;;;10.95;100.00
11523;BME280;70090;43.208;27.904;2024-03-02T04:23:41;100717.56;;;10.91;100.00
11523;BME280;70090;43.208;27.904;2024-03-02T04:26:08;100721.78;;;10.85;100.00
11523;BME280;70090;43.208;27.904;2024-03-02T04:28:35;100710.44;;;10.90;100.00
11523;BME280;70090;43.208;27.904;2024-03-02T04:31:02;100710.44;;;10.90;100.00
11523;BME280;70090;43.208;27.904;2024-03-02T04:33:29;100704.16;;;10.90;100.00
11523;BME280;70090;43.208;27.904;2024-03-02T04:35:56;100707.69;;;10.90;100.00
11523;BME280;70090;43.208;27.904;2024-03-02T04:38:24;100711.63;;;10.89;100.00
11523;BME280;70090;43.208;27.904;2024-03-02T04:40:52;100712.38;;;10.86;100.00
11523;BME280;70090;43.208;27.904;2024-03-02T04:43:19;100717.41;;;10.81;100.00
11523;BME280;70090;43.208;27.904;2024-03-02T04:45:46;100708.88;;;10.89;100.00
11523;BME280;70090;43.208;27.904;2024-03-02T04:48:13;100712.06;;;10.91;100.00
11523;BME280;70090;43.208;27.904;2024-03-02T04:50:40;100717.13;;;10.89;100.00
11523;BME280;70090;43.208;27.904;2024-03-02T04:53:07;100708.50;;;10.91;100.00
11523;BME280;70090;43.208;27.904;2024-03-02T04:55:34;100719.50;;;10.91;100.00
11523;BME280;70090;43.208;27.904;2024-03-02T04:58:46;100704.94;;;10.90;100.00
11523;BME280;70090;43.208;27.904;2024-03-02T05:01:13;100714.00;;;10.91;100.00
11523;BME280;70090;43.208;27.904;2024-03-02T05:03:42;100709.34;;;10.95;100.00
11523;BME280;70090;43.208;27.904;2024-03-02T05:06:09;100705.47;;;10.99;100.00
11523;BME280;70090;43.208;27.904;2024-03-02T05:08:36;100717.19;;;10.93;100.00
11523;BME280;70090;43.208;27.904;2024-03-02T05:11:03;100713.34;;;11.01;100.00
11523;BME280;70090;43.208;27.904;2024-03-02T05:13:45;100714.19;;;11.05;100.00
11523;BME280;70090;43.208;27.904;2024-03-02T05:16:12;100704.75;;;11.06;100.00
11523;BME280;70090;43.208;27.904;2024-03-02T05:18:39;100706.78;;;11.09;100.00
11523;BME280;70090;43.208;27.904;2024-03-02T05:21:06;100712.75;;;11.14;100.00
11523;BME280;70090;43.208;27.904;2024-03-02T05:23:33;100706.06;;;11.15;100.00
11523;BME280;70090;43.208;27.904;2024-03-02T05:26:00;100707.25;;;11.14;100.00
11523;BME280;70090;43.208;27.904;2024-03-02T05:28:28;100711.25;;;11.20;100.00
11523;BME280;70090;43.208;27.904;2024-03-02T05:30:56;100710.13;;;11.25;100.00
11523;BME280;70090;43.208;27.904;2024-03-02T05:33:23;100706.94;;;11.23;100.00
11523;BME280;70090;43.208;27.904;2024-03-02T05:35:50;100695.56;;;11.24;100.00
11523;BME280;70090;43.208;27.904;2024-03-02T05:38:17;100710.50;;;11.23;100.00
11523;BME280;70090;43.208;27.904;2024-03-02T05:40:44;100704.16;;;11.19;100.00
11523;BME280;70090;43.208;27.904;2024-03-02T05:43:11;100706.53;;;11.21;100.00
11523;BME280;70090;43.208;27.904;2024-03-02T05:45:39;100695.56;;;11.24;100.00
11523;BME280;70090;43.208;27.904;2024-03-02T05:48:08;100693.22;;;11.26;100.00
11523;BME280;70090;43.208;27.904;2024-03-02T05:50:35;100698.81;;;11.33;100.00
11523;BME280;70090;43.208;27.904;2024-03-02T05:53:02;100693.34;;;11.37;100.00
11523;BME280;70090;43.208;27.904;2024-03-02T05:55:29;100693.78;;;11.42;100.00
11523;BME280;70090;43.208;27.904;2024-03-02T05:57:56;100702.06;;;11.42;100.00
11523;BME280;70090;43.208;27.904;2024-03-02T06:00:41;100691.13;;;11.49;100.00
11523;BME280;70090;43.208;27.904;2024-03-02T06:03:09;100682.13;;;11.56;100.00
11523;BME280;70090;43.208;27.904;2024-03-02T06:05:36;100689.75;;;11.66;100.00
11523;BME280;70090;43.208;27.904;2024-03-02T06:08:04;100693.72;;;11.68;100.00
11523;BME280;70090;43.208;27.904;2024-03-02T06:10:31;100694.09;;;11.67;100.00
11523;BME280;70090;43.208;27.904;2024-03-02T06:12:58;100692.19;;;11.74;100.00
11523;BME280;70090;43.208;27.904;2024-03-02T06:15:25;100688.31;;;11.79;100.00
11523;BME280;70090;43.208;27.904;2024-03-02T06:17:52;100693.81;;;11.79;100.00
11523;BME280;70090;43.208;27.904;2024-03-02T06:20:21;100697.06;;;11.88;100.00
11523;BME280;70090;43.208;27.904;2024-03-02T06:22:48;100697.38;;;11.79;100.00
11523;BME280;70090;43.208;27.904;2024-03-02T06:25:15;100695.44;;;11.83;100.00
11523;BME280;70090;43.208;27.904;2024-03-02T06:27:42;100697.09;;;11.91;100.00
11523;BME280;70090;43.208;27.904;2024-03-02T06:30:10;100692.06;;;12.00;100.00
11523;BME280;70090;43.208;27.904;2024-03-02T06:32:37;100698.75;;;11.99;100.00
11523;BME280;70090;43.208;27.904;2024-03-02T06:35:05;100701.16;;;12.04;100.00
11523;BME280;70090;43.208;27.904;2024-03-02T06:37:38;100700.47;;;12.14;100.00
11523;BME280;70090;43.208;27.904;2024-03-02T06:40:06;100699.72;;;12.21;100.00
11523;BME280;70090;43.208;27.904;2024-03-02T06:42:33;100699.75;;;12.24;100.00
11523;BME280;70090;43.208;27.904;2024-03-02T06:45:01;100700.56;;;12.25;100.00
11523;BME280;70090;43.208;27.904;2024-03-02T06:47:28;100699.75;;;12.24;100.00
11523;BME280;70090;43.208;27.904;2024-03-02T06:49:55;100704.16;;;12.32;100.00
11523;BME280;70090;43.208;27.904;2024-03-02T06:52:24;100698.69;;;12.39;100.00
11523;BME280;70090;43.208;27.904;2024-03-02T06:54:52;100688.84;;;12.41;100.00
11523;BME280;70090;43.208;27.904;2024-03-02T06:57:19;100690.44;;;12.42;100.00
11523;BME280;70090;43.208;27.904;2024-03-02T06:59:46;100697.50;;;12.40;100.00
11523;BME280;70090;43.208;27.904;2024-03-02T07:02:15;100702.28;;;12.43;100.00
11523;BME280;70090;43.208;27.904;2024-03-02T07:04:42;100703.84;;;12.40;100.00
11523;BME280;70090;43.208;27.904;2024-03-02T07:07:10;100701.88;;;12.41;100.00
11523;BME280;70090;43.208;27.904;2024-03-02T07:09:37;100706.69;;;12.51;100.00
11523;BME280;70090;43.208;27.904;2024-03-02T07:12:06;100703.13;;;12.50;100.00
11523;BME280;70090;43.208;27.904;2024-03-02T07:14:33;100711.41;;;12.50;100.00
11523;BME280;70090;43.208;27.904;2024-03-02T07:17:17;100709.00;;;12.49;100.00
11523;BME280;70090;43.208;27.904;2024-03-02T07:19:44;100709.00;;;12.49;100.00
11523;BME280;70090;43.208;27.904;2024-03-02T07:22:12;100708.69;;;12.57;100.00
11523;BME280;70090;43.208;27.904;2024-03-02T07:24:39;100706.34;;;12.59;100.00
11523;BME280;70090;43.208;27.904;2024-03-02T07:27:09;100705.50;;;12.55;100.00
11523;BME280;70090;43.208;27.904;2024-03-02T07:29:36;100700.78;;;12.56;100.00
11523;BME280;70090;43.208;27.904;2024-03-02T07:32:03;100681.38;;;12.42;100.00
11523;BME280;70090;43.208;27.904;2024-03-02T07:34:31;100696.06;;;12.60;100.00
11523;BME280;70090;43.208;27.904;2024-03-02T07:36:58;100696.91;;;12.64;100.00
11523;BME280;70090;43.208;27.904;2024-03-02T07:39:25;100698.09;;;12.63;100.00
11523;BME280;70090;43.208;27.904;2024-03-02T07:41:52;100692.97;;;12.65;100.00
11523;BME280;70090;43.208;27.904;2024-03-02T07:44:21;100700.00;;;12.59;100.00
11523;BME280;70090;43.208;27.904;2024-03-02T07:46:48;100696.06;;;12.56;100.00
11523;BME280;70090;43.208;27.904;2024-03-02T07:49:16;100698.03;;;12.56;100.00
11523;BME280;70090;43.208;27.904;2024-03-02T07:51:43;100700.03;;;12.62;100.00
11523;BME280;70090;43.208;27.904;2024-03-02T07:54:10;100699.28;;;12.69;100.00
11523;BME280;70090;43.208;27.904;2024-03-02T07:56:37;100710.75;;;12.67;100.00
11523;BME280;70090;43.208;27.904;2024-03-02T07:59:04;100696.94;;;12.71;100.00
11523;BME280;70090;43.208;27.904;2024-03-02T08:01:34;100700.53;;;12.75;100.00
11523;BME280;70090;43.208;27.904;2024-03-02T08:04:02;100700.94;;;12.77;100.00
11523;BME280;70090;43.208;27.904;2024-03-02T08:06:30;100701.69;;;12.70;100.00
11523;BME280;70090;43.208;27.904;2024-03-02T08:08:58;100707.97;;;12.71;100.00
11523;BME280;70090;43.208;27.904;2024-03-02T08:11:25;100702.84;;;12.69;100.00
11523;BME280;70090;43.208;27.904;2024-03-02T08:13:52;100711.06;;;12.59;100.00
11523;BME280;70090;43.208;27.904;2024-03-02T08:16:21;100703.16;;;12.54;100.00
11523;BME280;70090;43.208;27.904;2024-03-02T08:18:51;100699.97;;;12.52;100.00
11523;BME280;70090;43.208;27.904;2024-03-02T08:21:19;100700.41;;;12.61;100.00
11523;BME280;70090;43.208;27.904;2024-03-02T08:23:47;100704.84;;;12.72;100.00
11523;BME280;70090;43.208;27.904;2024-03-02T08:26:14;100693.84;;;12.79;100.00
11523;BME280;70090;43.208;27.904;2024-03-02T08:28:41;100709.66;;;12.86;100.00
11523;BME280;70090;43.208;27.904;2024-03-02T08:31:08;100707.69;;;12.90;100.00
11523;BME280;70090;43.208;27.904;2024-03-02T08:33:35;100706.63;;;13.01;100.00
11523;BME280;70090;43.208;27.904;2024-03-02T08:36:05;100708.25;;;13.16;100.00
11523;BME280;70090;43.208;27.904;2024-03-02T08:38:32;100707.47;;;13.12;100.00
11523;BME280;70090;43.208;27.904;2024-03-02T08:41:00;100712.25;;;13.22;100.00
11523;BME280;70090;43.208;27.904;2024-03-02T08:43:27;100709.94;;;13.38;100.00
11523;BME280;70090;43.208;27.904;2024-03-02T08:45:54;100718.31;;;13.52;100.00
11523;BME280;70090;43.208;27.904;2024-03-02T08:48:21;100722.66;;;13.64;100.00
11523;BME280;70090;43.208;27.904;2024-03-02T08:50:49;100719.53;;;13.76;100.00
11523;BME280;70090;43.208;27.904;2024-03-02T08:53:17;100731.00;;;13.81;100.00
11523;BME280;70090;43.208;27.904;2024-03-02T08:55:45;100740.91;;;13.86;100.00
11523;BME280;70090;43.208;27.904;2024-03-02T08:58:12;100740.88;;;13.82;100.00
11523;BME280;70090;43.208;27.904;2024-03-02T09:00:40;100742.47;;;13.80;100.00
11523;BME280;70090;43.208;27.904;2024-03-02T09:03:07;100741.69;;;13.83;100.00
11523;BME280;70090;43.208;27.904;2024-03-02T09:05:34;100733.78;;;13.85;100.00
11523;BME280;70090;43.208;27.904;2024-03-02T09:08:01;100737.72;;;13.70;100.00
11523;BME280;70090;43.208;27.904;2024-03-02T09:10:30;100733.34;;;13.76;100.00
11523;BME280;70090;43.208;27.904;2024-03-02T09:12:58;100737.72;;;13.80;100.00
11523;BME280;70090;43.208;27.904;2024-03-02T09:15:25;100730.22;;;13.88;100.00
11523;BME280;70090;43.208;27.904;2024-03-02T09:17:52;100727.06;;;14.00;100.00
11523;BME280;70090;43.208;27.904;2024-03-02T09:20:19;100721.56;;;14.10;100.00
11523;BME280;70090;43.208;27.904;2024-03-02T09:22:46;100727.53;;;14.19;100.00
11523;BME280;70090;43.208;27.904;2024-03-02T09:25:14;100721.19;;;14.12;100.00
11523;BME280;70090;43.208;27.904;2024-03-02T09:27:43;100720.00;;;14.20;100.00
11523;BME280;70090;43.208;27.904;2024-03-02T09:30:10;100725.97;;;14.22;100.00
11523;BME280;70090;43.208;27.904;2024-03-02T09:32:39;100724.38;;;14.21;100.00
11523;BME280;70090;43.208;27.904;2024-03-02T09:35:07;100723.59;;;14.20;100.00
11523;BME280;70090;43.208;27.904;2024-03-02T09:37:34;100714.91;;;14.22;100.00
11523;BME280;70090;43.208;27.904;2024-03-02T09:40:01;100724.78;;;14.23;100.00
11523;BME280;70090;43.208;27.904;2024-03-02T09:42:29;100716.47;;;14.23;100.00
11523;BME280;70090;43.208;27.904;2024-03-02T09:44:59;100711.69;;;14.16;100.00
11523;BME280;70090;43.208;27.904;2024-03-02T09:47:26;100714.91;;;14.22;100.00
11523;BME280;70090;43.208;27.904;2024-03-02T09:49:53;100714.88;;;14.32;100.00
11523;BME280;70090;43.208;27.904;2024-03-02T09:52:22;100711.72;;;14.41;100.00
11523;BME280;70090;43.208;27.904;2024-03-02T09:54:49;100707.00;;;14.48;100.00
11523;BME280;70090;43.208;27.904;2024-03-02T09:57:16;100715.66;;;14.61;100.00
11523;BME280;70090;43.208;27.904;2024-03-02T09:59:43;100712.09;;;14.67;100.00
11523;BME280;70090;43.208;27.904;2024-03-02T10:02:12;100714.09;;;14.70;100.00
11523;BME280;70090;43.208;27.904;2024-03-02T10:04:39;100706.16;;;14.69;100.00
11523;BME280;70090;43.208;27.904;2024-03-02T10:07:13;100706.16;;;14.65;100.00
11523;BME280;70090;43.208;27.904;2024-03-02T10:09:41;100706.97;;;14.66;100.00
11523;BME280;70090;43.208;27.904;2024-03-02T10:12:09;100707.75;;;14.63;100.00
11523;BME280;70090;43.208;27.904;2024-03-02T10:14:38;100713.69;;;14.58;100.00
11523;BME280;70090;43.208;27.904;2024-03-02T10:17:06;100712.13;;;14.43;100.00
11523;BME280;70090;43.208;27.904;2024-03-02T10:19:36;100699.84;;;14.30;100.00
11523;BME280;70090;43.208;27.904;2024-03-02T10:22:04;100701.44;;;14.24;100.00
11523;BME280;70090;43.208;27.904;2024-03-02T10:24:36;100693.09;;;14.10;100.00
11523;BME280;70090;43.208;27.904;2024-03-02T10:27:08;100689.53;;;13.92;100.00
11523;BME280;70090;43.208;27.904;2024-03-02T10:29:39;100675.25;;;13.72;100.00
11523;BME280;70090;43.208;27.904;2024-03-02T10:32:09;100676.44;;;13.68;100.00
11523;BME280;70090;43.208;27.904;2024-03-02T10:34:39;100676.81;;;13.56;100.00
11523;BME280;70090;43.208;27.904;2024-03-02T10:37:07;100684.31;;;13.62;100.00
11523;BME280;70090;43.208;27.904;2024-03-02T10:39:34;100670.94;;;13.64;100.00
11523;BME280;70090;43.208;27.904;2024-03-02T10:42:03;100669.72;;;13.72;100.00
11523;BME280;70090;43.208;27.904;2024-03-02T10:44:30;100672.09;;;13.63;100.00
11523;BME280;70090;43.208;27.904;2024-03-02T10:47:00;100665.78;;;13.77;100.00
11523;BME280;70090;43.208;27.904;2024-03-02T10:49:29;100649.22;;;13.91;100.00
11523;BME280;70090;43.208;27.904;2024-03-02T10:51:58;100660.25;;;13.80;100.00
11523;BME280;70090;43.208;27.904;2024-03-02T10:54:25;100663.84;;;13.81;100.00
11523;BME280;70090;43.208;27.904;2024-03-02T10:56:55;100660.28;;;13.84;100.00
11523;BME280;70090;43.208;27.904;2024-03-02T10:59:27;100658.69;;;13.79;100.00
11523;BME280;70090;43.208;27.904;2024-03-02T11:01:58;100652.78;;;13.81;100.00
11523;BME280;70090;43.208;27.904;2024-03-02T11:04:26;100654.75;;;13.87;100.00
11523;BME280;70090;43.208;27.904;2024-03-02T11:06:58;100662.25;;;13.80;100.00
11523;BME280;70090;43.208;27.904;2024-03-02T11:09:28;100660.25;;;13.63;100.00
11523;BME280;70090;43.208;27.904;2024-03-02T11:12:01;100653.50;;;13.57;100.00
11523;BME280;70090;43.208;27.904;2024-03-02T11:14:32;100647.97;;;13.57;100.00
11523;BME280;70090;43.208;27.904;2024-03-02T11:17:02;100658.63;;;13.55;100.00
11523;BME280;70090;43.208;27.904;2024-03-02T11:19:31;100654.69;;;13.49;100.00
11523;BME280;70090;43.208;27.904;2024-03-02T11:22:02;100651.91;;;13.42;100.00
11523;BME280;70090;43.208;27.904;2024-03-02T11:24:31;100649.91;;;13.32;100.00
11523;BME280;70090;43.208;27.904;2024-03-02T11:27:03;100652.22;;;13.16;100.00
11523;BME280;70090;43.208;27.904;2024-03-02T11:29:45;100642.69;;;13.03;100.00
11523;BME280;70090;43.208;27.904;2024-03-02T11:32:17;100646.25;;;13.07;100.00
11523;BME280;70090;43.208;27.904;2024-03-02T11:34:48;100641.09;;;12.98;100.00
11523;BME280;70090;43.208;27.904;2024-03-02T11:37:18;100642.66;;;12.96;100.00
11523;BME280;70090;43.208;27.904;2024-03-02T11:39:46;100634.00;;;13.01;100.00
11523;BME280;70090;43.208;27.904;2024-03-02T11:42:14;100638.00;;;13.21;100.00
11523;BME280;70090;43.208;27.904;2024-03-02T11:44:43;100638.06;;;13.35;100.00
11523;BME280;70090;43.208;27.904;2024-03-02T11:47:13;100630.19;;;13.51;100.00
11523;BME280;70090;43.208;27.904;2024-03-02T11:49:44;100644.88;;;13.69;100.00
11523;BME280;70090;43.208;27.904;2024-03-02T11:52:13;100632.22;;;13.82;100.00
11523;BME280;70090;43.208;27.904;2024-03-02T11:54:42;100633.41;;;13.81;100.00
11523;BME280;70090;43.208;27.904;2024-03-02T11:57:14;100631.41;;;13.67;100.00
11523;BME280;70090;43.208;27.904;2024-03-02T11:59:42;100628.25;;;13.62;100.00
11523;BME280;70090;43.208;27.904;2024-03-02T12:02:15;100629.41;;;13.50;100.00
11523;BME280;70090;43.208;27.904;2024-03-02T12:04:43;100632.97;;;13.51;100.00
11523;BME280;70090;43.208;27.904;2024-03-02T12:07:10;100629.03;;;13.55;100.00
11523;BME280;70090;43.208;27.904;2024-03-02T12:09:38;100625.47;;;13.55;100.00
11523;BME280;70090;43.208;27.904;2024-03-02T12:12:08;100627.44;;;13.61;100.00
11523;BME280;70090;43.208;27.904;2024-03-02T12:14:36;100629.44;;;13.61;100.00
11523;BME280;70090;43.208;27.904;2024-03-02T12:17:03;100627.03;;;13.56;100.00
11523;BME280;70090;43.208;27.904;2024-03-02T12:19:31;100621.50;;;13.56;100.00
11523;BME280;70090;43.208;27.904;2024-03-02T12:21:59;100623.03;;;13.36;100.00
11523;BME280;70090;43.208;27.904;2024-03-02T12:24:28;100611.22;;;13.35;100.00
11523;BME280;70090;43.208;27.904;2024-03-02T12:26:55;100616.69;;;13.25;100.00
11523;BME280;70090;43.208;27.904;2024-03-02T12:29:24;100619.06;;;13.16;100.00
11523;BME280;70090;43.208;27.904;2024-03-02T12:31:52;100610.38;;;13.10;100.00
11523;BME280;70090;43.208;27.904;2024-03-02T12:34:19;100612.69;;;13.08;100.00
11523;BME280;70090;43.208;27.904;2024-03-02T12:36:47;100605.59;;;13.04;100.00